Time;durP1;ratioP1;P1;durP2;ratioP2;P2;SDS_P1;SDS_P2;PMS_P1;PMS_P2;Temp;Humidity;BMP_temperature;BMP_pressure;BME280_temperature;BME280_humidity;BME280_pressure;Samples;Min_cycle;Max_cycle;Signal;HPM_P1;HPM_P2
2023/01/19 00:00:02;;;;;;;15.75;8.60;;;;;;;4.17;45.86;99809.00;7395891;19;20002;-61
2023/01/19 00:02:28;;;;;;;17.35;9.05;;;;;;;4.44;45.30;99821.34;7396707;19;20005;-61
2023/01/19 00:05:02;;;;;;;16.35;9.27;;;;;;;4.43;45.27;99817.81;7394848;19;20010;-62
2023/01/19 00:07:29;;;;;;;17.40;9.45;;;;;;;4.54;44.95;99818.28;7396101;19;20002;-61
2023/01/19 00:09:55;;;;;;;18.08;8.73;;;;;;;4.31;45.59;99825.81;7397043;19;19991;-60
2023/01/19 00:12:21;;;;;;;16.90;8.60;;;;;;;4.08;46.06;99817.13;7396785;19;20002;-63
2023/01/19 00:14:46;;;;;;;18.40;9.48;;;;;;;4.14;45.87;99815.03;7395100;19;19998;-62
2023/01/19 00:17:12;;;;;;;18.08;9.23;;;;;;;4.24;45.72;99825.53;7396414;19;20074;-61
2023/01/19 00:19:38;;;;;;;16.40;9.27;;;;;;;4.17;45.97;99827.91;7394841;19;19995;-60
2023/01/19 00:22:06;;;;;;;17.15;9.98;;;;;;;4.08;46.10;99826.03;7396268;19;20006;-59
2023/01/19 00:24:33;;;;;;;16.35;8.95;;;;;;;4.04;46.03;99822.38;7394755;19;20010;-63
2023/01/19 00:26:59;;;;;;;18.42;8.95;;;;;;;4.26;45.76;99823.28;7396849;19;20376;-61
2023/01/19 00:29:24;;;;;;;18.00;9.00;;;;;;;4.32;45.56;99822.00;7395398;19;19987;-62
2023/01/19 00:31:50;;;;;;;17.08;9.07;;;;;;;4.33;45.57;99828.97;7396303;19;20012;-62
2023/01/19 00:34:16;;;;;;;19.50;9.30;;;;;;;4.25;45.81;99830.63;7394119;19;19998;-60
2023/01/19 00:36:42;;;;;;;16.90;9.30;;;;;;;4.07;46.11;99821.75;7389352;19;19995;-62
2023/01/19 00:39:08;;;;;;;17.95;9.30;;;;;;;4.24;45.79;99820.91;7391219;19;20006;-62
2023/01/19 00:44:18;;;;;;;17.35;9.55;;;;;;;4.25;46.03;99827.91;7391543;19;20002;-62
2023/01/19 00:46:43;;;;;;;16.55;8.90;;;;;;;4.17;46.11;99827.91;7391330;19;20002;-62
2023/01/19 00:49:09;;;;;;;16.75;9.50;;;;;;;4.13;46.22;99833.16;7389532;19;20023;-60
2023/01/19 00:51:35;;;;;;;16.60;9.20;;;;;;;4.07;46.54;99826.34;7391556;19;20001;-59
2023/01/19 00:54:03;;;;;;;14.43;8.38;;;;;;;4.33;46.10;99839.78;7388346;19;20435;-59
2023/01/19 00:56:32;;;;;;;19.73;9.80;;;;;;;4.54;45.68;99828.28;7391430;19;20003;-59
2023/01/19 00:58:59;;;;;;;16.70;9.25;;;;;;;4.42;45.83;99837.88;7390017;19;20006;-60
2023/01/19 01:01:25;;;;;;;15.60;9.13;;;;;;;4.49;46.03;99842.78;7391822;19;20485;-59
2023/01/19 01:03:52;;;;;;;18.55;9.63;;;;;;;3.95;47.38;99837.00;7389892;19;20066;-60
2023/01/19 01:06:19;;;;;;;20.25;9.68;;;;;;;4.20;46.71;99830.75;7389299;19;20006;-60
2023/01/19 01:08:45;;;;;;;16.52;9.27;;;;;;;4.20;46.80;99835.38;7390490;19;20036;-59
2023/01/19 01:11:11;;;;;;;16.33;9.43;;;;;;;4.19;46.75;99831.09;7390820;19;20002;-59
2023/01/19 01:13:36;;;;;;;20.27;10.18;;;;;;;4.43;46.52;99838.66;7389799;19;20335;-59
2023/01/19 01:16:02;;;;;;;16.75;10.00;;;;;;;4.30;46.75;99829.63;7391026;19;19999;-58
2023/01/19 01:18:28;;;;;;;19.20;10.13;;;;;;;4.52;46.21;99842.13;7387059;19;20006;-59
2023/01/19 01:21:05;;;;;;;19.67;9.95;;;;;;;4.48;46.54;99838.47;7390038;19;20019;-60
2023/01/19 01:23:31;;;;;;;20.23;10.65;;;;;;;4.28;46.92;99837.25;7389431;19;20035;-59
2023/01/19 01:25:57;;;;;;;16.98;9.75;;;;;;;4.43;46.79;99842.16;7391301;19;19999;-58
2023/01/19 01:28:23;;;;;;;17.60;9.88;;;;;;;4.23;47.31;99830.13;7390347;19;19999;-60
2023/01/19 01:30:53;;;;;;;19.10;10.45;;;;;;;4.01;47.78;99838.44;7390527;19;20002;-59
2023/01/19 01:33:19;;;;;;;16.67;9.85;;;;;;;4.22;47.60;99843.94;7390047;19;20006;-60
2023/01/19 01:35:47;;;;;;;16.67;9.45;;;;;;;4.31;47.33;99835.84;7388369;19;20320;-60
2023/01/19 01:38:12;;;;;;;19.25;10.30;;;;;;;4.36;47.20;99836.44;7389644;19;20006;-58
2023/01/19 01:40:39;;;;;;;19.20;10.80;;;;;;;4.32;47.40;99835.53;7390490;19;20463;-60
2023/01/19 01:43:13;;;;;;;17.65;9.98;;;;;;;4.29;47.94;99833.47;7389900;19;20003;-59
2023/01/19 01:45:40;;;;;;;16.35;10.68;;;;;;;4.23;47.78;99830.13;7390157;19;20360;-60
2023/01/19 01:48:21;;;;;;;18.02;10.90;;;;;;;4.32;47.41;99823.91;7389593;19;20006;-59
2023/01/19 01:53:36;;;;;;;17.08;10.43;;;;;;;4.56;46.90;99828.75;7389138;19;20066;-59
2023/01/19 01:56:06;;;;;;;17.10;10.38;;;;;;;4.68;46.58;99836.19;7390646;19;20458;-60
2023/01/19 01:58:32;;;;;;;19.05;10.50;;;;;;;4.57;46.97;99838.44;7388904;19;20312;-60
2023/01/19 02:03:43;;;;;;;;;;;;;;;4.42;47.81;99837.06;7389691;19;20002;-62
2023/01/19 02:06:11;;;;;;;19.70;11.10;;;;;;;4.33;47.55;99836.31;7393962;19;19922;-62
2023/01/19 02:14:13;;;;;;;20.17;11.57;;;;;;;4.37;47.46;99837.22;7395450;19;20044;-60
2023/01/19 02:16:38;;;;;;;17.92;10.68;;;;;;;4.38;47.83;99842.31;7394890;19;19999;-60
2023/01/19 02:19:07;;;;;;;19.70;10.75;;;;;;;4.15;48.28;99838.25;7393189;19;20458;-61
2023/01/19 02:21:53;;;;;;;19.85;10.77;;;;;;;4.25;48.56;99836.03;7396720;19;20007;-60
2023/01/19 02:24:20;;;;;;;15.32;9.90;;;;;;;4.20;48.50;99840.78;7394652;19;20009;-59
2023/01/19 02:26:47;;;;;;;19.40;11.07;;;;;;;4.08;48.83;99841.44;7397019;19;20384;-59
2023/01/19 02:29:23;;;;;;;17.88;10.98;;;;;;;4.38;48.11;99842.31;7395688;19;19994;-59
2023/01/19 02:31:50;;;;;;;18.50;11.13;;;;;;;4.47;47.92;99839.59;7396021;19;20006;-59
2023/01/19 02:34:18;;;;;;;18.40;10.68;;;;;;;4.43;47.84;99844.84;7393746;19;20332;-60
2023/01/19 02:36:53;;;;;;;19.20;11.32;;;;;;;4.61;47.53;99839.41;7396144;19;20006;-60
2023/01/19 02:39:24;;;;;;;19.42;10.63;;;;;;;4.73;47.15;99846.81;7394560;19;19999;-60
2023/01/19 02:41:59;;;;;;;17.40;10.73;;;;;;;4.67;47.52;99859.69;7394334;19;20335;-59
2023/01/19 02:44:25;;;;;;;18.35;11.02;;;;;;;4.37;48.09;99838.03;7394723;19;20408;-59
2023/01/19 02:46:54;;;;;;;19.20;10.55;;;;;;;4.15;48.78;99843.66;7396222;19;19998;-59
2023/01/19 02:49:20;;;;;;;21.67;11.57;;;;;;;4.24;48.66;99841.75;7394649;19;20497;-61
2023/01/19 02:51:46;;;;;;;17.70;11.13;;;;;;;4.42;48.31;99848.69;7396065;19;20011;-60
2023/01/19 02:54:27;;;;;;;18.38;11.63;;;;;;;4.59;47.91;99836.22;7394468;19;20007;-61
2023/01/19 02:57:02;;;;;;;17.75;10.05;;;;;;;4.72;47.44;99846.03;7395568;19;20002;-61
2023/01/19 02:59:51;;;;;;;18.38;11.57;;;;;;;4.26;48.67;99844.91;7393649;19;20329;-61
2023/01/19 03:02:29;;;;;;;17.23;10.88;;;;;;;4.21;48.73;99829.66;7394615;19;20519;-61
2023/01/19 03:05:23;;;;;;;17.88;10.80;;;;;;;4.23;48.96;99834.75;7393016;19;20011;-61
2023/01/19 03:08:34;;;;;;;16.23;10.23;;;;;;;4.34;48.94;99837.88;7394403;19;20039;-62
2023/01/19 03:11:03;;;;;;;18.40;10.90;;;;;;;4.45;48.22;99837.22;7392458;19;20002;-62
2023/01/19 03:13:38;;;;;;;19.52;11.20;;;;;;;4.33;48.40;99839.78;7394366;19;20026;-62
2023/01/19 03:16:11;;;;;;;17.25;11.20;;;;;;;4.43;48.34;99836.75;7392360;19;20003;-61
2023/01/19 03:18:39;;;;;;;16.35;10.68;;;;;;;4.00;49.16;99837.63;7393772;19;20014;-61
2023/01/19 03:21:06;;;;;;;17.58;10.60;;;;;;;4.05;49.16;99829.38;7394773;19;20062;-60
2023/01/19 03:23:35;;;;;;;17.95;11.15;;;;;;;4.17;49.05;99836.00;7394228;19;20007;-60
2023/01/19 03:26:04;;;;;;;18.20;11.40;;;;;;;3.84;49.90;99840.03;7394153;19;19995;-60
2023/01/19 03:28:32;;;;;;;18.42;11.70;;;;;;;4.26;48.77;99831.41;7394346;19;20003;-61
2023/01/19 03:31:04;;;;;;;19.13;11.73;;;;;;;3.99;49.58;99843.38;7394490;19;20006;-60
2023/01/19 03:33:32;;;;;;;20.70;11.32;;;;;;;4.22;49.01;99843.94;7392130;19;20014;-60
2023/01/19 03:36:04;;;;;;;17.63;11.27;;;;;;;4.25;48.87;99848.72;7392285;19;20367;-60
2023/01/19 03:38:36;;;;;;;16.55;10.80;;;;;;;4.11;49.34;99848.13;7393008;19;20007;-61
2023/01/19 03:41:05;;;;;;;17.13;11.15;;;;;;;4.44;48.38;99856.47;7394553;19;20347;-61
2023/01/19 03:43:34;;;;;;;15.52;10.18;;;;;;;4.35;48.88;99855.69;7393637;19;20016;-60
2023/01/19 03:46:01;;;;;;;16.42;10.77;;;;;;;4.20;49.08;99857.00;7393058;19;20481;-61
2023/01/19 03:48:27;;;;;;;17.23;10.63;;;;;;;4.16;49.13;99851.44;7394187;19;19998;-61
2023/01/19 03:50:54;;;;;;;15.95;10.57;;;;;;;4.36;48.67;99858.06;7393768;19;20010;-61
2023/01/19 03:53:21;;;;;;;17.13;10.27;;;;;;;4.15;49.48;99854.47;7393570;19;20343;-61
2023/01/19 03:55:50;;;;;;;15.82;10.13;;;;;;;4.01;49.80;99860.03;7393380;19;20074;-61
2023/01/19 03:58:16;;;;;;;16.98;10.32;;;;;;;4.07;49.86;99864.97;7393074;19;19994;-61
2023/01/19 04:00:42;;;;;;;17.70;10.30;;;;;;;4.04;50.05;99860.19;7392851;19;20513;-63
2023/01/19 04:03:28;;;;;;;17.60;10.68;;;;;;;4.37;49.18;99865.06;7393287;19;20007;-63
2023/01/19 04:05:55;;;;;;;15.40;9.75;;;;;;;4.36;48.85;99858.06;7386532;19;20014;-61
2023/01/19 04:08:21;;;;;;;15.07;9.52;;;;;;;4.22;49.37;99870.97;7392011;19;20009;-62
2023/01/19 04:10:47;;;;;;;14.57;9.98;;;;;;;4.25;49.43;99865.72;7393085;19;19998;-62
2023/01/19 04:13:13;;;;;;;14.60;9.57;;;;;;;4.16;49.80;99867.66;7392794;19;20002;-61
2023/01/19 04:15:38;;;;;;;15.90;9.20;;;;;;;4.44;48.80;99862.66;7390888;19;20010;-61
2023/01/19 04:18:05;;;;;;;15.73;9.65;;;;;;;4.70;48.48;99866.38;7392059;19;19998;-61
2023/01/19 04:20:32;;;;;;;13.98;9.45;;;;;;;4.38;48.88;99858.53;7392448;19;19998;-61
2023/01/19 04:22:59;;;;;;;14.90;10.13;;;;;;;4.48;48.76;99859.31;7393032;19;20095;-61
2023/01/19 04:25:25;;;;;;;17.27;10.32;;;;;;;4.36;49.17;99871.56;7390495;19;20078;-61
2023/01/19 04:27:52;;;;;;;15.88;10.23;;;;;;;4.24;49.68;99860.66;7391915;19;20006;-61
2023/01/19 04:30:18;;;;;;;15.05;9.23;;;;;;;4.42;49.29;99875.69;7392541;19;20428;-61
2023/01/19 04:32:44;;;;;;;14.18;9.70;;;;;;;4.36;49.43;99860.78;7392267;19;20029;-62
2023/01/19 04:35:10;;;;;;;14.55;9.65;;;;;;;4.19;49.98;99872.41;7390444;19;20070;-61
2023/01/19 04:37:36;;;;;;;15.63;10.85;;;;;;;4.25;49.67;99860.34;7389644;19;20003;-62
2023/01/19 04:40:03;;;;;;;15.15;9.65;;;;;;;4.41;49.37;99865.22;7388999;19;20062;-61
2023/01/19 04:42:35;;;;;;;13.68;9.90;;;;;;;4.51;48.97;99861.38;7391857;19;20025;-61
2023/01/19 04:45:01;;;;;;;14.73;9.85;;;;;;;4.71;48.50;99871.47;7390560;19;20052;-61
2023/01/19 04:47:26;;;;;;;16.33;10.55;;;;;;;4.63;48.79;99875.00;7389556;19;20010;-61
2023/01/19 04:49:52;;;;;;;14.75;10.00;;;;;;;4.56;49.09;99877.41;7390201;19;20014;-61
2023/01/19 04:52:18;;;;;;;14.80;10.32;;;;;;;4.55;49.03;99878.50;7391637;19;20405;-62
2023/01/19 04:54:44;;;;;;;14.77;10.55;;;;;;;4.45;49.27;99879.66;7388820;19;20637;-60
2023/01/19 04:57:09;;;;;;;16.25;10.38;;;;;;;4.70;48.90;99882.59;7391266;19;20002;-61
2023/01/19 04:59:35;;;;;;;16.75;10.90;;;;;;;4.45;49.49;99888.56;7390273;19;20002;-61
2023/01/19 05:02:01;;;;;;;17.38;10.95;;;;;;;4.55;49.30;99879.31;7391403;19;20006;-61
2023/01/19 05:04:27;;;;;;;17.65;11.63;;;;;;;4.67;49.24;99875.91;7388103;19;20022;-60
2023/01/19 05:06:53;;;;;;;17.77;11.93;;;;;;;4.46;49.61;99887.44;7391098;19;20023;-61
2023/01/19 05:09:19;;;;;;;17.42;10.85;;;;;;;4.55;49.15;99879.31;7390997;19;20054;-61
2023/01/19 05:11:45;;;;;;;16.95;11.48;;;;;;;4.57;49.30;99884.38;7391360;19;20011;-61
2023/01/19 05:14:10;;;;;;;17.17;11.75;;;;;;;4.45;49.62;99891.28;7390077;19;20007;-61
2023/01/19 05:16:36;;;;;;;18.20;11.80;;;;;;;4.45;49.71;99893.97;7390545;19;20029;-61
2023/01/19 05:19:02;;;;;;;18.08;12.30;;;;;;;4.46;49.38;99887.44;7389788;19;19991;-61
2023/01/19 05:21:28;;;;;;;17.00;11.70;;;;;;;4.59;49.30;99895.69;7390144;19;20093;-63
2023/01/19 05:23:54;;;;;;;17.45;11.73;;;;;;;4.45;49.61;99899.38;7390436;19;20085;-61
2023/01/19 05:26:20;;;;;;;18.17;12.00;;;;;;;4.22;50.53;99898.78;7390661;19;20471;-62
2023/01/19 05:28:46;;;;;;;22.38;12.23;;;;;;;4.46;49.86;99898.25;7389955;19;20009;-61
2023/01/19 05:31:12;;;;;;;18.60;12.35;;;;;;;4.45;49.93;99895.88;7389893;19;19999;-61
2023/01/19 05:33:37;;;;;;;19.80;13.00;;;;;;;4.58;49.57;99905.69;7390787;19;19991;-60
2023/01/19 05:36:03;;;;;;;18.10;12.85;;;;;;;4.65;49.27;99907.91;7390836;19;20010;-60
2023/01/19 05:38:29;;;;;;;20.95;12.68;;;;;;;4.57;49.66;99897.91;7389228;19;20002;-60
2023/01/19 05:40:57;;;;;;;20.85;13.32;;;;;;;4.41;49.92;99903.81;7397547;19;20003;-59
2023/01/19 05:43:24;;;;;;;20.40;13.40;;;;;;;4.15;50.51;99908.47;7397195;19;20066;-64
2023/01/19 05:45:50;;;;;;;24.15;14.07;;;;;;;4.26;50.42;99907.81;7397837;19;19998;-64
2023/01/19 05:48:23;;;;;;;23.50;14.15;;;;;;;4.41;49.81;99903.03;7397495;19;19994;-64
2023/01/19 05:50:49;;;;;;;21.23;13.60;;;;;;;4.46;49.79;99911.75;7397756;19;20118;-63
2023/01/19 05:53:15;;;;;;;19.08;13.07;;;;;;;4.61;49.47;99907.75;7397401;19;20645;-64
2023/01/19 05:55:41;;;;;;;20.60;13.48;;;;;;;4.71;49.18;99903.13;7397577;19;20010;-63
2023/01/19 05:58:07;;;;;;;21.55;13.07;;;;;;;4.62;49.31;99912.06;7396353;19;20007;-59
2023/01/19 06:00:33;;;;;;;24.90;13.82;;;;;;;4.68;49.21;99914.56;7397342;19;20002;-61
2023/01/19 06:03:00;;;;;;;20.02;13.75;;;;;;;4.75;48.97;99915.66;7397206;19;20375;-62
2023/01/19 06:05:26;;;;;;;23.27;13.10;;;;;;;4.68;49.03;99915.38;7392707;19;19998;-63
2023/01/19 06:07:55;;;;;;;21.67;13.25;;;;;;;4.73;48.98;99917.91;7396623;19;20485;-62
2023/01/19 06:10:21;;;;;;;24.10;14.30;;;;;;;4.83;48.80;99919.44;7396938;19;20002;-62
2023/01/19 06:12:47;;;;;;;20.48;13.23;;;;;;;4.76;48.80;99911.84;7396247;19;19999;-62
2023/01/19 06:15:14;;;;;;;19.98;13.45;;;;;;;4.89;48.52;99926.28;7395128;19;20006;-63
2023/01/19 06:17:40;;;;;;;20.80;12.90;;;;;;;4.77;48.89;99924.25;7396603;19;20006;-62
2023/01/19 06:20:06;;;;;;;19.10;12.35;;;;;;;4.62;49.33;99922.88;7392808;19;19991;-63
2023/01/19 06:22:32;;;;;;;18.13;12.38;;;;;;;4.74;48.94;99921.38;7396725;19;19991;-62
2023/01/19 06:24:58;;;;;;;21.80;13.10;;;;;;;4.58;49.33;99931.94;7394159;19;20002;-63
2023/01/19 06:27:23;;;;;;;19.20;11.18;;;;;;;4.78;48.84;99936.63;7395227;19;19999;-63
2023/01/19 06:29:49;;;;;;;20.90;12.73;;;;;;;4.84;48.52;99939.97;7396307;19;20074;-62
2023/01/19 06:32:16;;;;;;;20.35;12.82;;;;;;;4.93;48.47;99942.66;7396115;19;20073;-64
2023/01/19 06:34:42;;;;;;;20.23;12.45;;;;;;;4.85;48.56;99940.75;7394988;19;20001;-62
2023/01/19 06:37:12;;;;;;;18.88;12.32;;;;;;;4.92;48.54;99949.16;7395532;19;20348;-63
2023/01/19 06:39:39;;;;;;;19.27;12.82;;;;;;;5.08;48.18;99952.91;7394382;19;20003;-62
2023/01/19 06:42:06;;;;;;;20.25;12.02;;;;;;;5.06;48.20;99954.38;7395481;19;19999;-63
2023/01/19 06:44:32;;;;;;;18.02;11.40;;;;;;;5.05;48.03;99950.88;7394975;19;19999;-63
2023/01/19 06:46:58;;;;;;;19.77;12.07;;;;;;;5.01;47.90;99952.66;7395957;19;20352;-62
2023/01/19 06:49:24;;;;;;;19.60;11.93;;;;;;;4.93;48.25;99956.94;7395907;19;20030;-63
2023/01/19 06:51:50;;;;;;;19.85;11.43;;;;;;;4.95;48.31;99960.13;7392592;19;20015;-63
2023/01/19 06:54:15;;;;;;;18.45;11.20;;;;;;;5.04;47.76;99957.41;7394499;19;20308;-63
2023/01/19 06:56:41;;;;;;;18.98;12.00;;;;;;;5.14;47.87;99970.56;7395304;19;20003;-64
2023/01/19 06:59:08;;;;;;;19.55;12.13;;;;;;;5.10;47.94;99975.03;7394247;19;19995;-64
2023/01/19 07:01:34;;;;;;;17.92;11.55;;;;;;;4.87;48.56;99970.97;7395064;19;19995;-63
2023/01/19 07:04:00;;;;;;;19.05;12.20;;;;;;;4.98;48.29;99972.22;7394548;19;20014;-64
2023/01/19 07:06:26;;;;;;;19.52;11.68;;;;;;;4.92;48.27;99982.44;7394310;19;20074;-63
2023/01/19 07:08:53;;;;;;;20.17;12.80;;;;;;;5.13;47.99;99985.19;7394274;19;20003;-63
2023/01/19 07:11:19;;;;;;;20.88;12.30;;;;;;;5.13;47.84;99982.50;7395545;19;20005;-62
2023/01/19 07:13:50;;;;;;;18.55;11.90;;;;;;;5.14;47.93;99992.22;7393607;19;19998;-63
2023/01/19 07:16:16;;;;;;;18.85;11.95;;;;;;;4.89;48.70;99996.59;7395106;19;19998;-62
2023/01/19 07:18:42;;;;;;;20.20;12.63;;;;;;;4.89;48.91;99999.28;7393580;19;20304;-63
2023/01/19 07:21:08;;;;;;;21.45;13.05;;;;;;;5.04;48.65;100008.81;7394957;19;19998;-62
2023/01/19 07:23:34;;;;;;;20.90;13.30;;;;;;;5.16;48.15;100011.63;7393368;19;20017;-64
2023/01/19 07:26:00;;;;;;;18.50;11.23;;;;;;;5.12;48.39;100016.09;7394367;19;20002;-63
2023/01/19 07:28:27;;;;;;;22.85;12.35;;;;;;;5.11;48.36;100014.50;7393432;19;20018;-62
2023/01/19 07:30:54;;;;;;;18.25;11.55;;;;;;;5.23;48.25;100011.13;7394842;19;20002;-63
2023/01/19 07:33:23;;;;;;;19.25;12.27;;;;;;;4.83;48.89;100011.38;7394524;19;20066;-61
2023/01/19 07:35:52;;;;;;;17.73;11.95;;;;;;;4.95;48.83;100021.53;7397607;19;19991;-63
2023/01/19 07:38:18;;;;;;;21.20;12.63;;;;;;;4.98;48.76;100016.28;7393580;19;20002;-64
2023/01/19 07:40:47;;;;;;;17.92;12.07;;;;;;;4.68;49.45;100018.09;7394148;19;20006;-62
2023/01/19 07:43:14;;;;;;;18.63;12.13;;;;;;;4.92;48.88;100027.59;7393720;19;20031;-62
2023/01/19 07:45:41;;;;;;;20.48;11.60;;;;;;;5.07;48.70;100027.06;7394455;19;20003;-63
2023/01/19 07:48:06;;;;;;;18.60;12.13;;;;;;;5.09;48.40;100027.56;7392952;19;20026;-62
2023/01/19 07:50:32;;;;;;;19.92;11.45;;;;;;;5.04;48.61;100035.84;7393276;19;20321;-64
2023/01/19 07:53:05;;;;;;;19.25;12.57;;;;;;;4.95;48.99;100035.06;7393038;19;19998;-64
2023/01/19 07:55:31;;;;;;;17.83;11.95;;;;;;;4.89;48.93;100042.56;7390253;19;19995;-63
2023/01/19 07:57:56;;;;;;;18.45;11.75;;;;;;;5.04;48.69;100043.97;7391599;19;19999;-62
2023/01/19 08:00:24;;;;;;;18.52;11.45;;;;;;;5.24;48.24;100049.78;7391901;19;20074;-63
2023/01/19 08:02:50;;;;;;;19.13;11.50;;;;;;;5.18;48.18;100051.88;7391361;19;20002;-63
2023/01/19 08:05:18;;;;;;;17.80;12.43;;;;;;;5.26;48.24;100058.38;7390595;19;20007;-64
2023/01/19 08:07:45;;;;;;;17.90;11.95;;;;;;;5.18;48.20;100065.41;7391270;19;20014;-63
2023/01/19 08:10:12;;;;;;;17.67;11.60;;;;;;;5.30;48.22;100070.16;7392367;19;20470;-63
2023/01/19 08:12:39;;;;;;;18.83;12.15;;;;;;;5.16;48.41;100060.31;7392630;19;20479;-63
2023/01/19 08:15:05;;;;;;;22.50;11.98;;;;;;;5.20;48.44;100066.66;7390579;19;20006;-63
2023/01/19 08:17:31;;;;;;;18.85;12.60;;;;;;;5.13;48.59;100071.78;7391999;19;19999;-63
2023/01/19 08:19:57;;;;;;;18.52;12.10;;;;;;;5.18;48.72;100079.72;7390761;19;19994;-62
2023/01/19 08:22:22;;;;;;;17.55;12.00;;;;;;;5.28;48.30;100078.59;7393368;19;20028;-63
2023/01/19 08:24:48;;;;;;;18.80;12.18;;;;;;;5.40;48.08;100083.34;7389626;19;20009;-63
2023/01/19 08:27:14;;;;;;;18.90;12.25;;;;;;;5.55;47.79;100082.03;7391907;19;20002;-63
2023/01/19 08:29:40;;;;;;;19.10;12.75;;;;;;;5.45;48.15;100079.69;7391192;19;19999;-63
2023/01/19 08:32:05;;;;;;;20.70;12.15;;;;;;;5.41;48.15;100082.25;7391947;19;20087;-62
2023/01/19 08:34:31;;;;;;;20.88;12.85;;;;;;;5.14;48.63;100089.59;7390895;19;20006;-63
2023/01/19 08:36:58;;;;;;;21.40;13.48;;;;;;;5.15;48.78;100088.47;7392252;19;20090;-63
2023/01/19 08:39:33;;;;;;;20.05;12.23;;;;;;;5.36;48.53;100079.72;7389960;19;20024;-62
2023/01/19 08:41:59;;;;;;;19.75;13.68;;;;;;;5.36;48.39;100080.50;7391416;19;19995;-62
2023/01/19 08:44:26;;;;;;;21.40;12.90;;;;;;;5.46;48.05;100083.97;7391299;19;19999;-62
2023/01/19 08:46:51;;;;;;;22.38;13.88;;;;;;;5.37;48.24;100089.41;7389350;19;20443;-64
2023/01/19 08:49:17;;;;;;;19.83;12.95;;;;;;;5.44;48.32;100097.84;7392438;19;19998;-62
2023/01/19 08:51:45;;;;;;;20.08;13.10;;;;;;;5.40;48.56;100099.59;7391143;19;20485;-62
2023/01/19 08:54:12;;;;;;;20.65;13.70;;;;;;;5.35;48.64;100097.06;7389419;19;20002;-63
2023/01/19 08:56:38;;;;;;;22.45;13.60;;;;;;;4.95;49.42;100097.25;7390971;19;20125;-62
2023/01/19 08:59:04;;;;;;;21.42;13.02;;;;;;;5.18;49.11;100095.94;7390170;19;20069;-63
2023/01/19 09:01:29;;;;;;;21.70;13.57;;;;;;;5.49;48.26;100105.78;7390807;19;20664;-62
2023/01/19 09:03:55;;;;;;;19.80;13.48;;;;;;;5.60;48.21;100108.91;7389021;19;20014;-63
2023/01/19 09:06:28;;;;;;;22.65;13.82;;;;;;;5.63;48.01;100110.97;7388570;19;20058;-63
2023/01/19 09:08:53;;;;;;;23.98;14.43;;;;;;;5.53;48.29;100117.53;7390060;19;20035;-62
2023/01/19 09:11:19;;;;;;;21.73;14.35;;;;;;;5.56;48.16;100119.59;7391126;19;20066;-62
2023/01/19 09:13:45;;;;;;;23.73;14.73;;;;;;;5.45;48.30;100121.06;7386413;19;19999;-64
2023/01/19 09:16:12;;;;;;;23.73;14.57;;;;;;;5.43;48.52;100127.94;7391089;19;19999;-63
2023/01/19 09:18:38;;;;;;;23.98;15.02;;;;;;;5.53;48.18;100133.78;7388652;19;20503;-63
2023/01/19 09:21:04;;;;;;;23.63;14.23;;;;;;;5.42;48.64;100129.03;7390629;19;20352;-63
2023/01/19 09:23:30;;;;;;;21.15;13.93;;;;;;;5.57;48.20;100142.88;7390059;19;20032;-62
2023/01/19 09:25:58;;;;;;;22.70;13.68;;;;;;;5.63;48.07;100138.06;7390909;19;19998;-63
2023/01/19 09:28:24;;;;;;;22.77;14.38;;;;;;;5.59;48.13;100136.31;7389583;19;20054;-63
2023/01/19 09:30:50;;;;;;;22.58;14.13;;;;;;;5.52;48.41;100140.34;7390739;19;20437;-64
2023/01/19 09:33:18;;;;;;;23.88;14.13;;;;;;;5.63;48.16;100145.41;7390023;19;19999;-62
2023/01/19 09:35:45;;;;;;;22.65;14.25;;;;;;;5.56;48.44;100149.38;7391430;19;19999;-63
2023/01/19 09:38:14;;;;;;;21.65;13.55;;;;;;;5.54;48.52;100150.81;7390047;19;19990;-63
2023/01/19 09:40:47;;;;;;;23.40;13.95;;;;;;;5.65;48.21;100153.97;7389526;19;20441;-63
2023/01/19 09:43:34;;;;;;;22.55;13.18;;;;;;;5.69;48.14;100168.44;7390501;19;20003;-62
2023/01/19 09:46:01;;;;;;;24.88;14.65;;;;;;;5.68;48.23;100172.28;7389960;19;20319;-63
2023/01/19 09:48:27;;;;;;;22.08;13.60;;;;;;;5.57;48.63;100167.22;7389852;19;20002;-64
2023/01/19 09:50:55;;;;;;;26.58;14.23;;;;;;;5.55;48.48;100165.94;7389383;19;20344;-63
2023/01/19 09:53:42;;;;;;;24.15;13.18;;;;;;;5.67;48.14;100174.19;7389417;19;20029;-63
2023/01/19 09:56:13;;;;;;;23.52;14.00;;;;;;;5.59;48.43;100179.63;7389366;19;20001;-62
2023/01/19 09:58:40;;;;;;;21.45;14.02;;;;;;;5.67;48.25;100179.59;7388542;19;20001;-63
2023/01/19 10:01:17;;;;;;;22.38;13.40;;;;;;;5.68;48.44;100180.41;7389943;19;20006;-62
2023/01/19 10:03:42;;;;;;;23.40;14.25;;;;;;;5.73;48.27;100180.25;7389867;19;19998;-62
2023/01/19 10:06:16;;;;;;;27.30;14.88;;;;;;;5.81;48.00;100187.53;7387452;19;20033;-63
2023/01/19 10:08:56;;;;;;;26.67;15.15;;;;;;;5.57;48.70;100188.88;7389265;19;20003;-62
2023/01/19 10:11:32;;;;;;;23.85;14.32;;;;;;;5.69;48.36;100190.94;7388715;19;20339;-62
2023/01/19 10:13:58;;;;;;;26.50;14.25;;;;;;;5.78;48.48;100193.59;7388797;19;20062;-62
2023/01/19 10:16:37;;;;;;;25.48;15.05;;;;;;;5.73;48.50;100197.28;7389100;19;20003;-62
2023/01/19 10:19:40;;;;;;;24.45;14.20;;;;;;;5.69;48.77;100190.94;7388568;19;20022;-62
2023/01/19 10:22:33;;;;;;;27.38;15.02;;;;;;;5.71;48.85;100193.31;7387057;19;20014;-62
2023/01/19 10:25:04;;;;;;;25.38;15.07;;;;;;;5.74;48.50;100195.34;7387735;19;20003;-62
2023/01/19 10:27:33;;;;;;;26.27;13.95;;;;;;;5.79;48.69;100195.19;7396205;19;20007;-61
2023/01/19 10:30:00;;;;;;;25.35;14.20;;;;;;;5.73;48.77;100196.47;7394604;19;20411;-62
2023/01/19 10:32:39;;;;;;;21.90;13.82;;;;;;;5.86;48.43;100200.09;7396838;19;20019;-64
2023/01/19 10:35:20;;;;;;;25.55;14.80;;;;;;;5.79;48.64;100189.75;7393955;19;20011;-62
2023/01/19 10:37:46;;;;;;;21.52;12.95;;;;;;;5.85;48.66;100199.31;7395227;19;19990;-62
2023/01/19 10:40:28;;;;;;;28.80;14.85;;;;;;;5.89;48.71;100200.25;7393834;19;19990;-62
2023/01/19 10:42:55;;;;;;;21.40;13.10;;;;;;;5.94;48.62;100205.50;7395406;19;19994;-63
2023/01/19 10:45:25;;;;;;;22.35;13.88;;;;;;;5.78;49.04;100203.66;7394061;19;20006;-63
2023/01/19 10:47:54;;;;;;;23.73;13.60;;;;;;;5.73;49.07;100210.03;7393545;19;20034;-63
2023/01/19 10:50:23;;;;;;;21.67;13.45;;;;;;;5.86;49.07;100206.31;7395988;19;20132;-63
2023/01/19 10:52:51;;;;;;;21.30;13.05;;;;;;;6.08;48.54;100218.03;7396065;19;19995;-64
2023/01/19 10:55:23;;;;;;;21.55;13.27;;;;;;;6.19;48.28;100210.34;7394101;19;20681;-63
2023/01/19 10:57:51;;;;;;;22.55;12.45;;;;;;;6.05;48.65;100218.69;7394871;19;20012;-63
2023/01/19 11:00:41;;;;;;;20.27;12.77;;;;;;;6.02;48.71;100213.91;7392901;19;20009;-63
2023/01/19 11:03:26;;;;;;;20.05;12.05;;;;;;;6.09;48.67;100209.59;7394017;19;20002;-63
2023/01/19 11:05:52;;;;;;;18.45;10.65;;;;;;;6.16;48.48;100219.09;7392614;19;20493;-63
2023/01/19 11:08:29;;;;;;;19.30;10.73;;;;;;;6.19;48.53;100224.66;7394532;19;20006;-63
2023/01/19 11:11:02;;;;;;;17.15;9.70;;;;;;;6.29;48.15;100218.09;7394875;19;20011;-63
2023/01/19 11:13:28;;;;;;;17.40;9.52;;;;;;;6.26;48.49;100229.59;7395178;19;20011;-63
2023/01/19 11:15:57;;;;;;;17.05;8.07;;;;;;;6.28;48.49;100230.88;7395042;19;20010;-62
2023/01/19 11:18:29;;;;;;;15.40;7.57;;;;;;;6.23;48.65;100228.34;7394566;19;20002;-62
2023/01/19 11:21:00;;;;;;;14.05;7.65;;;;;;;6.07;49.05;100221.88;7394235;19;20010;-62
2023/01/19 11:23:45;;;;;;;12.25;6.32;;;;;;;6.13;49.13;100226.78;7393368;19;19998;-62
2023/01/19 11:26:24;;;;;;;12.52;6.20;;;;;;;6.12;49.08;100225.19;7394274;19;20010;-63
2023/01/19 11:28:53;;;;;;;12.68;6.05;;;;;;;6.28;48.79;100233.56;7394307;19;20475;-63
2023/01/19 11:31:33;;;;;;;11.98;6.32;;;;;;;6.37;48.86;100232.75;7393658;19;20316;-63
2023/01/19 11:34:05;;;;;;;12.45;5.65;;;;;;;6.44;48.48;100230.31;7393550;19;20002;-63
2023/01/19 11:36:34;;;;;;;11.60;5.82;;;;;;;6.52;48.41;100231.41;7392445;19;20022;-63
2023/01/19 11:39:27;;;;;;;15.65;5.10;;;;;;;6.42;48.94;100229.84;7392809;19;19994;-63
2023/01/19 11:41:56;;;;;;;10.27;3.65;;;;;;;6.45;48.74;100248.16;7392422;19;20003;-63
2023/01/19 11:44:38;;;;;;;14.48;4.18;;;;;;;6.50;48.62;100237.94;7392964;19;19999;-63